sensor_id;sensor_type;location;lat;lon;timestamp;temperature;humidity
41437;DHT22;27178;49.460;10.850;2023-03-24T00:01:22;16.20;68.90
41437;DHT22;27178;49.460;10.850;2023-03-24T00:03:51;16.10;68.70
41437;DHT22;27178;49.460;10.850;2023-03-24T00:06:19;16.10;68.60
41437;DHT22;27178;49.460;10.850;2023-03-24T00:08:48;16.10;68.70
41437;DHT22;27178;49.460;10.850;2023-03-24T00:11:18;16.10;68.90
41437;DHT22;27178;49.460;10.850;2023-03-24T00:13:47;16.10;68.90
41437;DHT22;27178;49.460;10.850;2023-03-24T00:16:17;16.10;68.90
41437;DHT22;27178;49.460;10.850;2023-03-24T00:18:46;16.10;69.00
41437;DHT22;27178;49.460;10.850;2023-03-24T00:21:20;16.10;69.00
41437;DHT22;27178;49.460;10.850;2023-03-24T00:23:51;16.10;68.90
41437;DHT22;27178;49.460;10.850;2023-03-24T00:26:22;16.10;68.80
41437;DHT22;27178;49.460;10.850;2023-03-24T00:28:51;16.10;68.80
41437;DHT22;27178;49.460;10.850;2023-03-24T00:31:19;16.10;68.90
41437;DHT22;27178;49.460;10.850;2023-03-24T00:33:49;16.10;69.10
41437;DHT22;27178;49.460;10.850;2023-03-24T00:36:19;16.10;69.10
41437;DHT22;27178;49.460;10.850;2023-03-24T00:38:49;16.10;69.00
41437;DHT22;27178;49.460;10.850;2023-03-24T00:41:18;16.10;69.00
41437;DHT22;27178;49.460;10.850;2023-03-24T00:43:49;16.10;69.00
41437;DHT22;27178;49.460;10.850;2023-03-24T00:46:18;16.10;69.00
41437;DHT22;27178;49.460;10.850;2023-03-24T00:48:56;16.10;68.80
41437;DHT22;27178;49.460;10.850;2023-03-24T00:51:29;16.10;68.90
41437;DHT22;27178;49.460;10.850;2023-03-24T00:53:58;16.10;69.00
41437;DHT22;27178;49.460;10.850;2023-03-24T00:56:29;16.10;68.80
41437;DHT22;27178;49.460;10.850;2023-03-24T00:59:00;16.10;68.90
41437;DHT22;27178;49.460;10.850;2023-03-24T01:01:30;16.10;68.90
41437;DHT22;27178;49.460;10.850;2023-03-24T01:04:02;16.10;69.00
41437;DHT22;27178;49.460;10.850;2023-03-24T01:06:32;16.10;69.00
41437;DHT22;27178;49.460;10.850;2023-03-24T01:09:03;16.10;69.00
41437;DHT22;27178;49.460;10.850;2023-03-24T01:11:35;16.10;69.10
41437;DHT22;27178;49.460;10.850;2023-03-24T01:14:06;16.10;69.10
41437;DHT22;27178;49.460;10.850;2023-03-24T01:16:35;16.10;69.20
41437;DHT22;27178;49.460;10.850;2023-03-24T01:19:04;16.10;69.20
41437;DHT22;27178;49.460;10.850;2023-03-24T01:21:32;16.10;69.20
41437;DHT22;27178;49.460;10.850;2023-03-24T01:24:03;16.10;69.30
41437;DHT22;27178;49.460;10.850;2023-03-24T01:26:32;16.00;69.30
41437;DHT22;27178;49.460;10.850;2023-03-24T01:29:00;16.00;69.30
41437;DHT22;27178;49.460;10.850;2023-03-24T01:31:30;16.00;69.40
41437;DHT22;27178;49.460;10.850;2023-03-24T01:33:59;16.00;69.60
41437;DHT22;27178;49.460;10.850;2023-03-24T01:36:28;16.00;69.60
41437;DHT22;27178;49.460;10.850;2023-03-24T01:38:56;16.00;69.80
41437;DHT22;27178;49.460;10.850;2023-03-24T01:41:31;16.00;70.10
41437;DHT22;27178;49.460;10.850;2023-03-24T01:43:59;16.00;70.10
41437;DHT22;27178;49.460;10.850;2023-03-24T01:46:29;16.00;70.20
41437;DHT22;27178;49.460;10.850;2023-03-24T01:49:02;16.00;70.30
41437;DHT22;27178;49.460;10.850;2023-03-24T01:51:34;16.00;70.40
41437;DHT22;27178;49.460;10.850;2023-03-24T01:54:09;16.00;70.40
41437;DHT22;27178;49.460;10.850;2023-03-24T01:56:39;16.00;70.50
41437;DHT22;27178;49.460;10.850;2023-03-24T01:59:10;16.00;70.50
41437;DHT22;27178;49.460;10.850;2023-03-24T02:01:41;16.00;70.60
41437;DHT22;27178;49.460;10.850;2023-03-24T02:04:10;16.00;70.70
41437;DHT22;27178;49.460;10.850;2023-03-24T02:06:41;15.90;70.70
41437;DHT22;27178;49.460;10.850;2023-03-24T02:09:11;15.90;70.90
41437;DHT22;27178;49.460;10.850;2023-03-24T02:11:41;15.90;70.90
41437;DHT22;27178;49.460;10.850;2023-03-24T02:14:10;15.90;70.90
41437;DHT22;27178;49.460;10.850;2023-03-24T02:16:53;15.90;71.10
41437;DHT22;27178;49.460;10.850;2023-03-24T02:22:45;15.90;71.40
41437;DHT22;27178;49.460;10.850;2023-03-24T02:25:40;15.90;71.40
41437;DHT22;27178;49.460;10.850;2023-03-24T02:28:20;15.90;71.40
41437;DHT22;27178;49.460;10.850;2023-03-24T02:34:31;15.90;71.40
41437;DHT22;27178;49.460;10.850;2023-03-24T02:40:23;15.90;71.40
41437;DHT22;27178;49.460;10.850;2023-03-24T02:43:03;15.90;71.40
41437;DHT22;27178;49.460;10.850;2023-03-24T02:45:35;15.90;71.30
41437;DHT22;27178;49.460;10.850;2023-03-24T02:48:18;15.90;71.20
41437;DHT22;27178;49.460;10.850;2023-03-24T02:50:50;15.80;71.40
41437;DHT22;27178;49.460;10.850;2023-03-24T02:53:28;15.90;71.40
41437;DHT22;27178;49.460;10.850;2023-03-24T02:56:05;15.80;71.40
41437;DHT22;27178;49.460;10.850;2023-03-24T02:58:39;15.80;71.40
41437;DHT22;27178;49.460;10.850;2023-03-24T03:01:12;15.80;71.20
41437;DHT22;27178;49.460;10.850;2023-03-24T03:03:46;15.80;71.30
41437;DHT22;27178;49.460;10.850;2023-03-24T03:06:19;15.80;71.40
41437;DHT22;27178;49.460;10.850;2023-03-24T03:08:50;15.80;71.40
41437;DHT22;27178;49.460;10.850;2023-03-24T03:11:20;15.80;71.40
41437;DHT22;27178;49.460;10.850;2023-03-24T03:13:51;15.80;71.40
41437;DHT22;27178;49.460;10.850;2023-03-24T03:16:23;15.80;71.40
41437;DHT22;27178;49.460;10.850;2023-03-24T03:19:02;15.80;71.40
41437;DHT22;27178;49.460;10.850;2023-03-24T03:21:38;15.80;71.40
41437;DHT22;27178;49.460;10.850;2023-03-24T03:24:10;15.80;71.50
41437;DHT22;27178;49.460;10.850;2023-03-24T03:26:43;15.80;71.50
41437;DHT22;27178;49.460;10.850;2023-03-24T03:29:16;15.80;71.50
41437;DHT22;27178;49.460;10.850;2023-03-24T03:31:49;15.80;71.50
41437;DHT22;27178;49.460;10.850;2023-03-24T03:34:26;15.80;71.50
41437;DHT22;27178;49.460;10.850;2023-03-24T03:37:00;15.80;71.40
41437;DHT22;27178;49.460;10.850;2023-03-24T03:39:33;15.80;71.30
41437;DHT22;27178;49.460;10.850;2023-03-24T03:42:05;15.80;71.30
41437;DHT22;27178;49.460;10.850;2023-03-24T03:44:34;15.80;71.30
41437;DHT22;27178;49.460;10.850;2023-03-24T03:47:02;15.80;71.30
41437;DHT22;27178;49.460;10.850;2023-03-24T03:49:31;15.80;71.20
41437;DHT22;27178;49.460;10.850;2023-03-24T03:52:00;15.80;71.10
41437;DHT22;27178;49.460;10.850;2023-03-24T03:54:30;15.80;71.10
41437;DHT22;27178;49.460;10.850;2023-03-24T03:57:00;15.80;71.00
41437;DHT22;27178;49.460;10.850;2023-03-24T03:59:32;15.80;70.90
41437;DHT22;27178;49.460;10.850;2023-03-24T04:02:10;15.80;71.00
41437;DHT22;27178;49.460;10.850;2023-03-24T04:05:12;15.90;71.00
41437;DHT22;27178;49.460;10.850;2023-03-24T04:08:03;15.90;70.90
41437;DHT22;27178;49.460;10.850;2023-03-24T04:10:45;15.90;70.60
41437;DHT22;27178;49.460;10.850;2023-03-24T04:13:22;15.90;70.70
41437;DHT22;27178;49.460;10.850;2023-03-24T04:15:58;15.90;70.60
41437;DHT22;27178;49.460;10.850;2023-03-24T04:18:53;15.90;70.70
41437;DHT22;27178;49.460;10.850;2023-03-24T04:21:46;15.90;70.60
41437;DHT22;27178;49.460;10.850;2023-03-24T04:24:27;15.90;70.50
41437;DHT22;27178;49.460;10.850;2023-03-24T04:27:05;15.90;70.50
41437;DHT22;27178;49.460;10.850;2023-03-24T04:29:39;15.90;70.50
41437;DHT22;27178;49.460;10.850;2023-03-24T04:32:18;15.90;70.30
41437;DHT22;27178;49.460;10.850;2023-03-24T04:34:52;15.90;70.40
41437;DHT22;27178;49.460;10.850;2023-03-24T04:37:29;15.90;70.30
41437;DHT22;27178;49.460;10.850;2023-03-24T04:40:02;15.90;70.30
41437;DHT22;27178;49.460;10.850;2023-03-24T04:42:35;15.90;70.30
41437;DHT22;27178;49.460;10.850;2023-03-24T04:45:06;15.90;70.30
41437;DHT22;27178;49.460;10.850;2023-03-24T04:47:40;15.90;70.30
41437;DHT22;27178;49.460;10.850;2023-03-24T04:50:11;15.80;70.30
41437;DHT22;27178;49.460;10.850;2023-03-24T04:52:40;15.90;70.30
41437;DHT22;27178;49.460;10.850;2023-03-24T04:55:31;15.90;70.10
41437;DHT22;27178;49.460;10.850;2023-03-24T04:58:04;15.90;70.10
41437;DHT22;27178;49.460;10.850;2023-03-24T05:00:32;15.90;70.00
41437;DHT22;27178;49.460;10.850;2023-03-24T05:03:04;15.90;70.00
41437;DHT22;27178;49.460;10.850;2023-03-24T05:05:33;15.90;70.10
41437;DHT22;27178;49.460;10.850;2023-03-24T05:08:01;15.90;70.00
41437;DHT22;27178;49.460;10.850;2023-03-24T05:10:29;15.90;70.10
41437;DHT22;27178;49.460;10.850;2023-03-24T05:12:58;15.90;70.10
41437;DHT22;27178;49.460;10.850;2023-03-24T05:15:26;15.90;70.10
41437;DHT22;27178;49.460;10.850;2023-03-24T05:17:55;15.90;70.20
41437;DHT22;27178;49.460;10.850;2023-03-24T05:20:25;15.90;70.00
41437;DHT22;27178;49.460;10.850;2023-03-24T05:22:54;15.90;70.10
41437;DHT22;27178;49.460;10.850;2023-03-24T05:25:22;15.90;70.00
41437;DHT22;27178;49.460;10.850;2023-03-24T05:27:51;15.90;69.90
41437;DHT22;27178;49.460;10.850;2023-03-24T05:30:19;15.90;70.00
41437;DHT22;27178;49.460;10.850;2023-03-24T05:32:47;15.90;69.90
41437;DHT22;27178;49.460;10.850;2023-03-24T05:35:17;15.90;69.80
41437;DHT22;27178;49.460;10.850;2023-03-24T05:37:46;16.00;69.80
41437;DHT22;27178;49.460;10.850;2023-03-24T05:40:15;15.90;69.80
41437;DHT22;27178;49.460;10.850;2023-03-24T05:42:43;16.00;69.90
41437;DHT22;27178;49.460;10.850;2023-03-24T05:45:12;16.00;69.80
41437;DHT22;27178;49.460;10.850;2023-03-24T05:47:41;16.00;69.80
41437;DHT22;27178;49.460;10.850;2023-03-24T05:50:09;16.00;69.80
41437;DHT22;27178;49.460;10.850;2023-03-24T05:52:38;16.00;69.80
41437;DHT22;27178;49.460;10.850;2023-03-24T05:55:09;16.00;69.80
41437;DHT22;27178;49.460;10.850;2023-03-24T05:57:37;16.00;69.70
41437;DHT22;27178;49.460;10.850;2023-03-24T06:00:07;16.00;69.70
41437;DHT22;27178;49.460;10.850;2023-03-24T06:02:41;16.00;69.80
41437;DHT22;27178;49.460;10.850;2023-03-24T06:05:09;16.00;69.90
41437;DHT22;27178;49.460;10.850;2023-03-24T06:07:39;16.10;70.10
41437;DHT22;27178;49.460;10.850;2023-03-24T06:10:10;16.10;69.90
41437;DHT22;27178;49.460;10.850;2023-03-24T06:12:40;16.10;69.80
41437;DHT22;27178;49.460;10.850;2023-03-24T06:15:09;16.10;69.80
41437;DHT22;27178;49.460;10.850;2023-03-24T06:17:43;16.10;69.80
41437;DHT22;27178;49.460;10.850;2023-03-24T06:20:13;16.10;69.80
41437;DHT22;27178;49.460;10.850;2023-03-24T06:22:45;16.10;69.90
41437;DHT22;27178;49.460;10.850;2023-03-24T06:25:16;16.10;69.80
41437;DHT22;27178;49.460;10.850;2023-03-24T06:27:46;16.10;69.90
41437;DHT22;27178;49.460;10.850;2023-03-24T06:30:16;16.10;69.90
41437;DHT22;27178;49.460;10.850;2023-03-24T06:32:44;16.10;69.90
41437;DHT22;27178;49.460;10.850;2023-03-24T06:35:14;16.10;70.90
41437;DHT22;27178;49.460;10.850;2023-03-24T06:37:43;16.10;69.80
41437;DHT22;27178;49.460;10.850;2023-03-24T06:40:12;16.10;69.80
41437;DHT22;27178;49.460;10.850;2023-03-24T06:42:45;16.10;70.00
41437;DHT22;27178;49.460;10.850;2023-03-24T06:45:13;16.10;70.10
41437;DHT22;27178;49.460;10.850;2023-03-24T06:47:41;16.10;70.10
41437;DHT22;27178;49.460;10.850;2023-03-24T06:50:10;16.10;70.20
41437;DHT22;27178;49.460;10.850;2023-03-24T06:52:38;16.10;70.30
41437;DHT22;27178;49.460;10.850;2023-03-24T06:55:07;16.10;70.60
41437;DHT22;27178;49.460;10.850;2023-03-24T06:57:35;16.10;70.60
41437;DHT22;27178;49.460;10.850;2023-03-24T07:00:07;16.10;70.70
41437;DHT22;27178;49.460;10.850;2023-03-24T07:02:36;16.10;70.80
41437;DHT22;27178;49.460;10.850;2023-03-24T07:05:05;16.10;71.10
41437;DHT22;27178;49.460;10.850;2023-03-24T07:07:35;16.10;71.30
41437;DHT22;27178;49.460;10.850;2023-03-24T07:10:23;16.10;71.40
41437;DHT22;27178;49.460;10.850;2023-03-24T07:12:52;16.20;71.50
41437;DHT22;27178;49.460;10.850;2023-03-24T07:15:21;16.20;71.60
41437;DHT22;27178;49.460;10.850;2023-03-24T07:17:50;16.20;71.60
41437;DHT22;27178;49.460;10.850;2023-03-24T07:20:19;16.20;71.50
41437;DHT22;27178;49.460;10.850;2023-03-24T07:22:47;16.20;71.40
41437;DHT22;27178;49.460;10.850;2023-03-24T07:25:16;16.20;71.40
41437;DHT22;27178;49.460;10.850;2023-03-24T07:27:47;16.30;71.50
41437;DHT22;27178;49.460;10.850;2023-03-24T07:30:15;16.30;71.60
41437;DHT22;27178;49.460;10.850;2023-03-24T07:32:56;16.30;71.50
41437;DHT22;27178;49.460;10.850;2023-03-24T07:35:24;16.30;71.50
41437;DHT22;27178;49.460;10.850;2023-03-24T07:37:56;16.30;71.50
41437;DHT22;27178;49.460;10.850;2023-03-24T07:40:24;16.30;71.60
41437;DHT22;27178;49.460;10.850;2023-03-24T07:42:52;16.30;71.50
41437;DHT22;27178;49.460;10.850;2023-03-24T07:45:21;16.30;71.50
41437;DHT22;27178;49.460;10.850;2023-03-24T07:47:49;16.30;71.60
41437;DHT22;27178;49.460;10.850;2023-03-24T07:50:19;16.20;71.70
41437;DHT22;27178;49.460;10.850;2023-03-24T07:52:48;16.20;71.80
41437;DHT22;27178;49.460;10.850;2023-03-24T07:55:17;16.30;72.00
41437;DHT22;27178;49.460;10.850;2023-03-24T07:57:47;16.30;72.00
41437;DHT22;27178;49.460;10.850;2023-03-24T08:00:16;16.30;72.00
41437;DHT22;27178;49.460;10.850;2023-03-24T08:02:48;16.30;71.90
41437;DHT22;27178;49.460;10.850;2023-03-24T08:05:20;16.30;71.80
41437;DHT22;27178;49.460;10.850;2023-03-24T08:07:50;16.30;71.90
41437;DHT22;27178;49.460;10.850;2023-03-24T08:10:22;16.30;72.00
41437;DHT22;27178;49.460;10.850;2023-03-24T08:12:51;16.30;72.10
41437;DHT22;27178;49.460;10.850;2023-03-24T08:15:19;16.40;72.00
41437;DHT22;27178;49.460;10.850;2023-03-24T08:17:48;16.40;72.00
41437;DHT22;27178;49.460;10.850;2023-03-24T08:20:19;16.40;72.10
41437;DHT22;27178;49.460;10.850;2023-03-24T08:22:50;16.40;72.10
41437;DHT22;27178;49.460;10.850;2023-03-24T08:25:21;16.40;72.00
41437;DHT22;27178;49.460;10.850;2023-03-24T08:27:51;16.40;72.00
41437;DHT22;27178;49.460;10.850;2023-03-24T08:30:21;16.40;72.00
41437;DHT22;27178;49.460;10.850;2023-03-24T08:32:51;16.40;72.00
41437;DHT22;27178;49.460;10.850;2023-03-24T08:35:24;16.40;72.00
41437;DHT22;27178;49.460;10.850;2023-03-24T08:37:53;16.40;72.30
41437;DHT22;27178;49.460;10.850;2023-03-24T08:40:22;16.40;72.20
41437;DHT22;27178;49.460;10.850;2023-03-24T08:42:52;16.40;72.20
41437;DHT22;27178;49.460;10.850;2023-03-24T08:45:23;16.40;72.30
41437;DHT22;27178;49.460;10.850;2023-03-24T08:47:54;16.40;72.40
41437;DHT22;27178;49.460;10.850;2023-03-24T08:50:26;16.40;72.70
41437;DHT22;27178;49.460;10.850;2023-03-24T08:52:56;16.40;73.20
41437;DHT22;27178;49.460;10.850;2023-03-24T08:55:26;16.40;73.30
41437;DHT22;27178;49.460;10.850;2023-03-24T08:57:54;16.40;73.20
41437;DHT22;27178;49.460;10.850;2023-03-24T09:00:23;16.40;73.30
41437;DHT22;27178;49.460;10.850;2023-03-24T09:02:53;16.40;73.40
41437;DHT22;27178;49.460;10.850;2023-03-24T09:05:23;16.40;73.30
41437;DHT22;27178;49.460;10.850;2023-03-24T09:08:09;16.40;73.80
41437;DHT22;27178;49.460;10.850;2023-03-24T09:10:38;16.40;74.60
41437;DHT22;27178;49.460;10.850;2023-03-24T09:13:06;16.40;73.80
41437;DHT22;27178;49.460;10.850;2023-03-24T09:15:35;16.40;74.10
41437;DHT22;27178;49.460;10.850;2023-03-24T09:18:04;16.40;74.60
41437;DHT22;27178;49.460;10.850;2023-03-24T09:20:33;16.40;74.70
41437;DHT22;27178;49.460;10.850;2023-03-24T09:23:02;16.40;74.90
41437;DHT22;27178;49.460;10.850;2023-03-24T09:25:31;16.40;74.80
41437;DHT22;27178;49.460;10.850;2023-03-24T09:27:59;16.40;74.80
41437;DHT22;27178;49.460;10.850;2023-03-24T09:30:28;16.40;75.10
41437;DHT22;27178;49.460;10.850;2023-03-24T09:33:00;16.40;75.20
41437;DHT22;27178;49.460;10.850;2023-03-24T09:35:29;16.30;75.60
41437;DHT22;27178;49.460;10.850;2023-03-24T09:37:58;16.30;75.90
41437;DHT22;27178;49.460;10.850;2023-03-24T09:40:29;16.30;76.00
41437;DHT22;27178;49.460;10.850;2023-03-24T09:43:02;16.30;76.10
41437;DHT22;27178;49.460;10.850;2023-03-24T09:45:35;16.30;76.70
41437;DHT22;27178;49.460;10.850;2023-03-24T09:48:06;16.30;76.80
41437;DHT22;27178;49.460;10.850;2023-03-24T09:50:39;16.30;76.90
41437;DHT22;27178;49.460;10.850;2023-03-24T09:53:29;16.40;77.20
41437;DHT22;27178;49.460;10.850;2023-03-24T09:56:06;16.40;77.70
41437;DHT22;27178;49.460;10.850;2023-03-24T09:58:36;16.40;77.10
41437;DHT22;27178;49.460;10.850;2023-03-24T10:01:12;16.40;77.10
41437;DHT22;27178;49.460;10.850;2023-03-24T10:03:42;16.50;77.20
41437;DHT22;27178;49.460;10.850;2023-03-24T10:06:16;16.50;77.00
41437;DHT22;27178;49.460;10.850;2023-03-24T10:08:53;16.60;77.40
41437;DHT22;27178;49.460;10.850;2023-03-24T10:11:29;16.60;77.30
41437;DHT22;27178;49.460;10.850;2023-03-24T10:14:09;16.60;77.10
41437;DHT22;27178;49.460;10.850;2023-03-24T10:16:44;16.70;77.20
41437;DHT22;27178;49.460;10.850;2023-03-24T10:19:23;16.70;77.00
41437;DHT22;27178;49.460;10.850;2023-03-24T10:22:02;16.70;76.80
41437;DHT22;27178;49.460;10.850;2023-03-24T10:24:38;16.80;76.60
41437;DHT22;27178;49.460;10.850;2023-03-24T10:27:16;16.80;76.60
41437;DHT22;27178;49.460;10.850;2023-03-24T10:29:48;16.80;76.50
41437;DHT22;27178;49.460;10.850;2023-03-24T10:32:23;16.80;76.40
41437;DHT22;27178;49.460;10.850;2023-03-24T10:34:55;16.80;76.40
41437;DHT22;27178;49.460;10.850;2023-03-24T10:37:26;16.80;76.30
41437;DHT22;27178;49.460;10.850;2023-03-24T10:39:57;16.90;76.30
41437;DHT22;27178;49.460;10.850;2023-03-24T10:42:30;16.90;77.10
41437;DHT22;27178;49.460;10.850;2023-03-24T10:45:01;16.90;76.10
41437;DHT22;27178;49.460;10.850;2023-03-24T10:47:30;16.90;76.20
41437;DHT22;27178;49.460;10.850;2023-03-24T10:50:01;16.90;76.20
41437;DHT22;27178;49.460;10.850;2023-03-24T10:52:40;16.90;76.30
41437;DHT22;27178;49.460;10.850;2023-03-24T10:55:16;17.00;76.30
41437;DHT22;27178;49.460;10.850;2023-03-24T10:57:47;17.00;76.40
41437;DHT22;27178;49.460;10.850;2023-03-24T11:00:21;17.00;76.20
41437;DHT22;27178;49.460;10.850;2023-03-24T11:02:55;17.00;76.20
41437;DHT22;27178;49.460;10.850;2023-03-24T11:05:27;17.00;76.20
41437;DHT22;27178;49.460;10.850;2023-03-24T11:08:09;17.00;76.30
41437;DHT22;27178;49.460;10.850;2023-03-24T11:10:40;17.00;76.00
41437;DHT22;27178;49.460;10.850;2023-03-24T11:13:16;17.00;76.00
41437;DHT22;27178;49.460;10.850;2023-03-24T11:16:02;16.90;75.90
41437;DHT22;27178;49.460;10.850;2023-03-24T11:18:31;17.00;76.20
41437;DHT22;27178;49.460;10.850;2023-03-24T11:21:01;16.90;75.90
41437;DHT22;27178;49.460;10.850;2023-03-24T11:23:32;16.90;76.20
41437;DHT22;27178;49.460;10.850;2023-03-24T11:26:06;16.90;76.30
41437;DHT22;27178;49.460;10.850;2023-03-24T11:28:38;16.90;76.50
41437;DHT22;27178;49.460;10.850;2023-03-24T11:31:08;17.00;76.60
41437;DHT22;27178;49.460;10.850;2023-03-24T11:33:42;17.00;76.30
41437;DHT22;27178;49.460;10.850;2023-03-24T11:36:37;17.00;76.30
41437;DHT22;27178;49.460;10.850;2023-03-24T11:39:16;17.00;76.50
41437;DHT22;27178;49.460;10.850;2023-03-24T11:42:02;17.00;76.30
41437;DHT22;27178;49.460;10.850;2023-03-24T11:44:44;17.10;76.50
41437;DHT22;27178;49.460;10.850;2023-03-24T11:47:18;17.20;76.70
41437;DHT22;27178;49.460;10.850;2023-03-24T11:49:53;17.20;76.50
41437;DHT22;27178;49.460;10.850;2023-03-24T11:52:27;17.30;76.30
41437;DHT22;27178;49.460;10.850;2023-03-24T11:54:57;17.40;76.20
41437;DHT22;27178;49.460;10.850;2023-03-24T11:57:40;17.40;75.80
41437;DHT22;27178;49.460;10.850;2023-03-24T12:00:19;17.50;76.70
41437;DHT22;27178;49.460;10.850;2023-03-24T12:03:13;17.50;75.20
41437;DHT22;27178;49.460;10.850;2023-03-24T12:05:50;17.50;75.00
41437;DHT22;27178;49.460;10.850;2023-03-24T12:08:32;17.60;74.90
41437;DHT22;27178;49.460;10.850;2023-03-24T12:11:13;17.60;74.90
41437;DHT22;27178;49.460;10.850;2023-03-24T12:13:48;17.60;74.60
41437;DHT22;27178;49.460;10.850;2023-03-24T12:16:39;17.60;74.60
41437;DHT22;27178;49.460;10.850;2023-03-24T12:22:25;17.60;74.30
41437;DHT22;27178;49.460;10.850;2023-03-24T12:25:17;17.60;74.30
41437;DHT22;27178;49.460;10.850;2023-03-24T12:27:53;17.70;74.30
41437;DHT22;27178;49.460;10.850;2023-03-24T12:30:30;17.70;74.30
41437;DHT22;27178;49.460;10.850;2023-03-24T12:33:26;17.70;74.30
41437;DHT22;27178;49.460;10.850;2023-03-24T12:36:18;17.70;73.90
41437;DHT22;27178;49.460;10.850;2023-03-24T12:39:00;17.80;73.80
41437;DHT22;27178;49.460;10.850;2023-03-24T12:41:56;17.80;73.70
41437;DHT22;27178;49.460;10.850;2023-03-24T12:48:10;17.90;73.20
41437;DHT22;27178;49.460;10.850;2023-03-24T12:50:49;18.00;72.70
41437;DHT22;27178;49.460;10.850;2023-03-24T12:53:31;18.00;72.80
41437;DHT22;27178;49.460;10.850;2023-03-24T12:56:07;18.10;72.10
41437;DHT22;27178;49.460;10.850;2023-03-24T12:58:40;18.10;72.10
41437;DHT22;27178;49.460;10.850;2023-03-24T13:01:15;18.00;72.10
41437;DHT22;27178;49.460;10.850;2023-03-24T13:03:50;18.00;72.10
41437;DHT22;27178;49.460;10.850;2023-03-24T13:06:24;18.00;72.50
41437;DHT22;27178;49.460;10.850;2023-03-24T13:09:03;18.00;72.70
41437;DHT22;27178;49.460;10.850;2023-03-24T13:11:37;18.00;73.10
41437;DHT22;27178;49.460;10.850;2023-03-24T13:14:13;17.90;74.30
41437;DHT22;27178;49.460;10.850;2023-03-24T13:16:44;17.80;75.00
41437;DHT22;27178;49.460;10.850;2023-03-24T13:19:18;17.60;75.20
41437;DHT22;27178;49.460;10.850;2023-03-24T13:21:50;17.50;76.00
41437;DHT22;27178;49.460;10.850;2023-03-24T13:24:21;17.40;76.50
41437;DHT22;27178;49.460;10.850;2023-03-24T13:26:57;17.30;76.90
41437;DHT22;27178;49.460;10.850;2023-03-24T13:29:48;17.20;77.90
41437;DHT22;27178;49.460;10.850;2023-03-24T13:32:30;17.10;78.60
41437;DHT22;27178;49.460;10.850;2023-03-24T13:35:05;17.00;78.70
41437;DHT22;27178;49.460;10.850;2023-03-24T13:37:40;16.90;78.60
41437;DHT22;27178;49.460;10.850;2023-03-24T13:40:19;16.80;78.70
41437;DHT22;27178;49.460;10.850;2023-03-24T13:42:52;16.80;79.50
41437;DHT22;27178;49.460;10.850;2023-03-24T13:45:30;16.70;79.30
41437;DHT22;27178;49.460;10.850;2023-03-24T13:48:13;16.60;79.70
41437;DHT22;27178;49.460;10.850;2023-03-24T13:50:53;16.60;79.60
41437;DHT22;27178;49.460;10.850;2023-03-24T13:53:30;16.50;80.10
41437;DHT22;27178;49.460;10.850;2023-03-24T13:56:00;16.50;80.30
41437;DHT22;27178;49.460;10.850;2023-03-24T13:58:49;16.40;80.40
41437;DHT22;27178;49.460;10.850;2023-03-24T14:01:30;16.40;81.40
41437;DHT22;27178;49.460;10.850;2023-03-24T14:04:23;16.40;81.40
41437;DHT22;27178;49.460;10.850;2023-03-24T14:06:54;16.40;81.80
41437;DHT22;27178;49.460;10.850;2023-03-24T14:09:24;16.40;81.30
41437;DHT22;27178;49.460;10.850;2023-03-24T14:12:16;16.40;81.40
41437;DHT22;27178;49.460;10.850;2023-03-24T14:15:13;16.40;81.80
41437;DHT22;27178;49.460;10.850;2023-03-24T14:17:47;16.40;81.40
41437;DHT22;27178;49.460;10.850;2023-03-24T14:20:32;16.40;80.70
41437;DHT22;27178;49.460;10.850;2023-03-24T14:23:03;16.40;80.50
41437;DHT22;27178;49.460;10.850;2023-03-24T14:25:32;16.40;80.10
41437;DHT22;27178;49.460;10.850;2023-03-24T14:28:20;16.30;80.20
41437;DHT22;27178;49.460;10.850;2023-03-24T14:34:01;16.30;80.60
41437;DHT22;27178;49.460;10.850;2023-03-24T14:36:34;16.30;80.50
41437;DHT22;27178;49.460;10.850;2023-03-24T14:39:09;16.30;80.20
41437;DHT22;27178;49.460;10.850;2023-03-24T14:41:40;16.30;80.10
41437;DHT22;27178;49.460;10.850;2023-03-24T14:44:11;16.30;79.90
41437;DHT22;27178;49.460;10.850;2023-03-24T14:46:41;16.20;79.60
41437;DHT22;27178;49.460;10.850;2023-03-24T14:49:18;16.20;79.40
41437;DHT22;27178;49.460;10.850;2023-03-24T14:51:51;16.20;79.50
41437;DHT22;27178;49.460;10.850;2023-03-24T14:54:28;16.20;79.40
41437;DHT22;27178;49.460;10.850;2023-03-24T14:56:58;16.20;79.20
41437;DHT22;27178;49.460;10.850;2023-03-24T14:59:38;16.20;78.80
41437;DHT22;27178;49.460;10.850;2023-03-24T15:02:23;16.10;78.70
41437;DHT22;27178;49.460;10.850;2023-03-24T15:05:15;16.10;78.30
41437;DHT22;27178;49.460;10.850;2023-03-24T15:08:02;16.10;78.40
41437;DHT22;27178;49.460;10.850;2023-03-24T15:10:36;16.00;78.40
41437;DHT22;27178;49.460;10.850;2023-03-24T15:13:32;16.00;78.20
41437;DHT22;27178;49.460;10.850;2023-03-24T15:16:04;15.90;77.10
41437;DHT22;27178;49.460;10.850;2023-03-24T15:18:34;15.90;77.70
41437;DHT22;27178;49.460;10.850;2023-03-24T15:21:14;15.80;77.70
41437;DHT22;27178;49.460;10.850;2023-03-24T15:23:45;15.70;77.30
41437;DHT22;27178;49.460;10.850;2023-03-24T15:26:18;15.70;77.60
41437;DHT22;27178;49.460;10.850;2023-03-24T15:28:56;15.70;77.60
41437;DHT22;27178;49.460;10.850;2023-03-24T15:31:26;15.70;77.40
41437;DHT22;27178;49.460;10.850;2023-03-24T15:34:23;15.60;77.10
41437;DHT22;27178;49.460;10.850;2023-03-24T15:36:53;15.60;77.60
41437;DHT22;27178;49.460;10.850;2023-03-24T15:39:26;15.60;77.50
41437;DHT22;27178;49.460;10.850;2023-03-24T15:41:56;15.50;77.20
41437;DHT22;27178;49.460;10.850;2023-03-24T15:44:26;15.50;77.50
41437;DHT22;27178;49.460;10.850;2023-03-24T15:46:57;15.50;77.70
41437;DHT22;27178;49.460;10.850;2023-03-24T15:49:29;15.40;77.70
41437;DHT22;27178;49.460;10.850;2023-03-24T15:52:00;15.40;77.70
41437;DHT22;27178;49.460;10.850;2023-03-24T15:54:30;15.50;77.60
41437;DHT22;27178;49.460;10.850;2023-03-24T15:57:16;15.40;77.20
41437;DHT22;27178;49.460;10.850;2023-03-24T15:59:47;15.40;77.20
41437;DHT22;27178;49.460;10.850;2023-03-24T16:02:26;15.50;77.20
41437;DHT22;27178;49.460;10.850;2023-03-24T16:04:58;15.40;76.90
41437;DHT22;27178;49.460;10.850;2023-03-24T16:07:37;15.40;77.00
41437;DHT22;27178;49.460;10.850;2023-03-24T16:10:29;15.40;76.80
41437;DHT22;27178;49.460;10.850;2023-03-24T16:13:12;15.40;76.60
41437;DHT22;27178;49.460;10.850;2023-03-24T16:15:43;15.40;76.70